sensor_id;sensor_type;location;lat;lon;timestamp;pressure;altitude;pressure_sealevel;temperature;humidity
59110;BME280;44895;47.438;18.978;2022-10-22T00:02:14;100152.88;;;10.55;100.00
59110;BME280;44895;47.438;18.978;2022-10-22T00:05:22;100142.09;;;10.50;100.00
59110;BME280;44895;47.438;18.978;2022-10-22T00:08:26;100149.81;;;10.42;100.00
59110;BME280;44895;47.438;18.978;2022-10-22T00:11:29;100151.78;;;10.56;100.00
59110;BME280;44895;47.438;18.978;2022-10-22T00:14:33;100143.41;;;10.52;100.00
59110;BME280;44895;47.438;18.978;2022-10-22T00:17:37;100148.25;;;10.36;100.00
59110;BME280;44895;47.438;18.978;2022-10-22T00:20:40;100149.06;;;10.37;100.00
59110;BME280;44895;47.438;18.978;2022-10-22T00:23:44;100159.38;;;10.59;100.00
59110;BME280;44895;47.438;18.978;2022-10-22T00:26:48;100157.81;;;10.53;100.00
59110;BME280;44895;47.438;18.978;2022-10-22T00:29:52;100141.66;;;10.42;100.00
59110;BME280;44895;47.438;18.978;2022-10-22T00:32:56;100135.72;;;10.40;100.00
59110;BME280;44895;47.438;18.978;2022-10-22T00:35:59;100135.75;;;10.11;100.00
59110;BME280;44895;47.438;18.978;2022-10-22T00:39:03;100134.50;;;10.03;100.00
59110;BME280;44895;47.438;18.978;2022-10-22T00:42:11;100132.63;;;10.23;100.00
59110;BME280;44895;47.438;18.978;2022-10-22T00:45:20;100128.28;;;10.22;100.00
59110;BME280;44895;47.438;18.978;2022-10-22T00:48:30;100114.16;;;10.25;100.00
59110;BME280;44895;47.438;18.978;2022-10-22T00:51:35;100118.09;;;10.14;100.00
59110;BME280;44895;47.438;18.978;2022-10-22T00:54:40;100123.78;;;10.12;100.00
59110;BME280;44895;47.438;18.978;2022-10-22T00:57:45;100128.59;;;10.20;100.00
59110;BME280;44895;47.438;18.978;2022-10-22T01:00:49;100123.88;;;10.26;100.00
59110;BME280;44895;47.438;18.978;2022-10-22T01:03:52;100123.31;;;10.29;100.00
59110;BME280;44895;47.438;18.978;2022-10-22T01:06:56;100135.41;;;10.18;100.00
59110;BME280;44895;47.438;18.978;2022-10-22T01:10:25;100131.75;;;10.27;100.00
59110;BME280;44895;47.438;18.978;2022-10-22T01:13:37;100124.06;;;10.35;100.00
59110;BME280;44895;47.438;18.978;2022-10-22T01:16:56;100134.47;;;10.52;100.00
59110;BME280;44895;47.438;18.978;2022-10-22T01:20:32;100126.56;;;10.31;100.00
59110;BME280;44895;47.438;18.978;2022-10-22T01:27:28;100127.72;;;10.25;100.00
59110;BME280;44895;47.438;18.978;2022-10-22T01:30:35;100128.00;;;9.99;100.00
59110;BME280;44895;47.438;18.978;2022-10-22T01:33:42;100124.03;;;9.91;100.00
59110;BME280;44895;47.438;18.978;2022-10-22T01:36:50;100131.25;;;9.77;100.00
59110;BME280;44895;47.438;18.978;2022-10-22T01:39:55;100133.44;;;9.99;100.00
59110;BME280;44895;47.438;18.978;2022-10-22T01:43:06;100125.41;;;9.89;100.00
59110;BME280;44895;47.438;18.978;2022-10-22T01:46:11;100123.41;;;9.75;100.00
59110;BME280;44895;47.438;18.978;2022-10-22T02:03:05;100119.94;;;9.94;100.00
59110;BME280;44895;47.438;18.978;2022-10-22T02:06:16;100114.16;;;10.01;100.00
59110;BME280;44895;47.438;18.978;2022-10-22T02:09:21;100105.16;;;9.81;100.00
59110;BME280;44895;47.438;18.978;2022-10-22T02:12:30;100108.09;;;9.85;100.00
59110;BME280;44895;47.438;18.978;2022-10-22T02:15:36;100100.50;;;9.87;100.00
59110;BME280;44895;47.438;18.978;2022-10-22T02:18:42;100095.44;;;9.75;100.00
59110;BME280;44895;47.438;18.978;2022-10-22T02:21:47;100102.00;;;9.69;100.00
59110;BME280;44895;47.438;18.978;2022-10-22T02:24:51;100109.31;;;9.73;100.00
59110;BME280;44895;47.438;18.978;2022-10-22T02:28:03;100110.56;;;9.57;100.00
59110;BME280;44895;47.438;18.978;2022-10-22T02:31:14;100110.00;;;9.55;100.00
59110;BME280;44895;47.438;18.978;2022-10-22T02:34:22;100110.41;;;9.43;100.00
59110;BME280;44895;47.438;18.978;2022-10-22T02:37:27;100107.88;;;9.52;100.00
59110;BME280;44895;47.438;18.978;2022-10-22T02:40:31;100107.94;;;9.17;100.00
59110;BME280;44895;47.438;18.978;2022-10-22T02:43:40;100109.13;;;9.01;100.00
59110;BME280;44895;47.438;18.978;2022-10-22T02:46:45;100120.00;;;9.30;100.00
59110;BME280;44895;47.438;18.978;2022-10-22T02:49:49;100138.63;;;9.07;100.00
59110;BME280;44895;47.438;18.978;2022-10-22T02:52:53;100138.75;;;8.87;100.00
59110;BME280;44895;47.438;18.978;2022-10-22T02:55:57;100134.50;;;8.70;100.00
59110;BME280;44895;47.438;18.978;2022-10-22T02:59:01;100132.06;;;8.69;100.00
59110;BME280;44895;47.438;18.978;2022-10-22T03:02:04;100124.84;;;8.59;100.00
59110;BME280;44895;47.438;18.978;2022-10-22T03:05:08;100123.69;;;8.65;100.00
59110;BME280;44895;47.438;18.978;2022-10-22T03:08:13;100129.13;;;8.60;100.00
59110;BME280;44895;47.438;18.978;2022-10-22T03:11:16;100127.59;;;8.38;100.00
59110;BME280;44895;47.438;18.978;2022-10-22T03:14:20;100121.69;;;8.26;100.00
59110;BME280;44895;47.438;18.978;2022-10-22T03:17:24;100108.09;;;8.41;100.00
59110;BME280;44895;47.438;18.978;2022-10-22T03:20:28;100117.41;;;8.09;100.00
59110;BME280;44895;47.438;18.978;2022-10-22T03:23:32;100110.41;;;8.13;100.00
59110;BME280;44895;47.438;18.978;2022-10-22T03:26:36;100100.38;;;8.14;100.00
59110;BME280;44895;47.438;18.978;2022-10-22T03:29:42;100096.31;;;8.11;100.00
59110;BME280;44895;47.438;18.978;2022-10-22T03:32:46;100093.66;;;8.06;100.00
59110;BME280;44895;47.438;18.978;2022-10-22T03:35:50;100102.38;;;7.82;100.00
59110;BME280;44895;47.438;18.978;2022-10-22T03:38:54;100085.63;;;7.65;100.00
59110;BME280;44895;47.438;18.978;2022-10-22T03:41:58;100092.16;;;7.59;100.00
59110;BME280;44895;47.438;18.978;2022-10-22T03:45:01;100100.00;;;7.55;100.00
59110;BME280;44895;47.438;18.978;2022-10-22T03:48:05;100086.16;;;7.77;100.00
59110;BME280;44895;47.438;18.978;2022-10-22T03:51:09;100083.97;;;7.84;100.00
59110;BME280;44895;47.438;18.978;2022-10-22T03:54:14;100080.22;;;7.75;100.00
59110;BME280;44895;47.438;18.978;2022-10-22T03:57:18;100077.50;;;7.70;100.00
59110;BME280;44895;47.438;18.978;2022-10-22T04:00:22;100077.00;;;7.68;100.00
59110;BME280;44895;47.438;18.978;2022-10-22T04:03:25;100083.75;;;7.65;100.00
59110;BME280;44895;47.438;18.978;2022-10-22T04:06:29;100103.22;;;7.57;100.00
59110;BME280;44895;47.438;18.978;2022-10-22T04:09:33;100111.06;;;7.69;100.00
59110;BME280;44895;47.438;18.978;2022-10-22T04:12:37;100107.25;;;7.80;100.00
59110;BME280;44895;47.438;18.978;2022-10-22T04:15:41;100098.59;;;7.73;100.00
59110;BME280;44895;47.438;18.978;2022-10-22T04:18:46;100096.47;;;7.60;100.00
59110;BME280;44895;47.438;18.978;2022-10-22T04:21:50;100110.00;;;7.55;100.00
59110;BME280;44895;47.438;18.978;2022-10-22T04:24:53;100104.03;;;7.63;100.00
59110;BME280;44895;47.438;18.978;2022-10-22T04:27:57;100108.88;;;7.76;100.00
59110;BME280;44895;47.438;18.978;2022-10-22T04:31:13;100098.59;;;7.73;100.00
59110;BME280;44895;47.438;18.978;2022-10-22T04:34:18;100078.88;;;7.67;100.00
59110;BME280;44895;47.438;18.978;2022-10-22T04:37:22;100084.56;;;7.71;100.00
59110;BME280;44895;47.438;18.978;2022-10-22T04:40:26;100088.94;;;7.51;100.00
59110;BME280;44895;47.438;18.978;2022-10-22T04:43:29;100096.72;;;7.63;100.00
59110;BME280;44895;47.438;18.978;2022-10-22T04:46:34;100085.38;;;7.72;100.00
59110;BME280;44895;47.438;18.978;2022-10-22T04:49:37;100093.50;;;7.51;100.00
59110;BME280;44895;47.438;18.978;2022-10-22T04:52:41;100091.63;;;7.46;100.00
59110;BME280;44895;47.438;18.978;2022-10-22T04:55:45;100081.84;;;7.66;100.00
59110;BME280;44895;47.438;18.978;2022-10-22T04:58:56;100085.97;;;7.38;100.00
59110;BME280;44895;47.438;18.978;2022-10-22T05:02:01;100088.34;;;7.60;100.00
59110;BME280;44895;47.438;18.978;2022-10-22T05:05:04;100098.63;;;7.63;100.00
59110;BME280;44895;47.438;18.978;2022-10-22T05:08:08;100092.72;;;7.45;100.00
59110;BME280;44895;47.438;18.978;2022-10-22T05:11:14;100093.25;;;7.58;100.00
59110;BME280;44895;47.438;18.978;2022-10-22T05:14:21;100084.34;;;7.42;100.00
59110;BME280;44895;47.438;18.978;2022-10-22T05:17:25;100092.41;;;7.62;100.00
59110;BME280;44895;47.438;18.978;2022-10-22T05:20:29;100088.66;;;7.53;100.00
59110;BME280;44895;47.438;18.978;2022-10-22T05:23:33;100094.88;;;7.59;100.00
59110;BME280;44895;47.438;18.978;2022-10-22T05:26:37;100094.28;;;7.77;100.00
59110;BME280;44895;47.438;18.978;2022-10-22T05:29:40;100094.75;;;7.95;100.00
59110;BME280;44895;47.438;18.978;2022-10-22T05:32:44;100096.38;;;8.01;100.00
59110;BME280;44895;47.438;18.978;2022-10-22T05:35:49;100098.59;;;7.78;100.00
59110;BME280;44895;47.438;18.978;2022-10-22T05:38:52;100091.84;;;7.81;100.00
59110;BME280;44895;47.438;18.978;2022-10-22T05:41:56;100087.22;;;7.76;100.00
59110;BME280;44895;47.438;18.978;2022-10-22T05:45:01;100082.31;;;7.94;100.00
59110;BME280;44895;47.438;18.978;2022-10-22T05:48:05;100086.84;;;8.14;100.00
59110;BME280;44895;47.438;18.978;2022-10-22T05:51:11;100088.72;;;8.24;100.00
59110;BME280;44895;47.438;18.978;2022-10-22T05:54:17;100105.28;;;8.02;100.00
59110;BME280;44895;47.438;18.978;2022-10-22T05:57:21;100101.16;;;8.25;100.00
59110;BME280;44895;47.438;18.978;2022-10-22T06:00:24;100103.91;;;8.09;100.00
59110;BME280;44895;47.438;18.978;2022-10-22T06:03:28;100107.72;;;8.03;100.00
59110;BME280;44895;47.438;18.978;2022-10-22T06:06:50;100118.66;;;8.43;100.00
59110;BME280;44895;47.438;18.978;2022-10-22T06:09:55;100136.81;;;8.47;100.00
59110;BME280;44895;47.438;18.978;2022-10-22T06:12:58;100132.16;;;8.53;100.00
59110;BME280;44895;47.438;18.978;2022-10-22T06:16:04;100127.00;;;8.57;100.00
59110;BME280;44895;47.438;18.978;2022-10-22T06:19:12;100129.63;;;8.72;100.00
59110;BME280;44895;47.438;18.978;2022-10-22T06:22:16;100127.41;;;8.79;100.00
59110;BME280;44895;47.438;18.978;2022-10-22T06:25:20;100119.84;;;9.16;100.00
59110;BME280;44895;47.438;18.978;2022-10-22T06:28:25;100129.72;;;9.36;100.00
59110;BME280;44895;47.438;18.978;2022-10-22T06:31:29;100129.63;;;9.76;100.00
59110;BME280;44895;47.438;18.978;2022-10-22T06:34:38;100127.63;;;9.87;100.00
59110;BME280;44895;47.438;18.978;2022-10-22T06:37:42;100125.41;;;10.13;100.00
59110;BME280;44895;47.438;18.978;2022-10-22T06:40:46;100132.75;;;10.37;100.00
59110;BME280;44895;47.438;18.978;2022-10-22T06:43:50;100155.75;;;10.44;100.00
59110;BME280;44895;47.438;18.978;2022-10-22T06:46:55;100156.28;;;10.66;100.00
59110;BME280;44895;47.438;18.978;2022-10-22T06:49:59;100155.13;;;10.72;100.00
59110;BME280;44895;47.438;18.978;2022-10-22T06:53:03;100145.28;;;10.57;100.00
59110;BME280;44895;47.438;18.978;2022-10-22T06:56:12;100147.94;;;11.33;100.00
59110;BME280;44895;47.438;18.978;2022-10-22T06:59:16;100135.97;;;11.81;100.00
59110;BME280;44895;47.438;18.978;2022-10-22T07:02:20;100133.47;;;11.85;100.00
59110;BME280;44895;47.438;18.978;2022-10-22T07:05:23;100153.91;;;11.35;100.00
59110;BME280;44895;47.438;18.978;2022-10-22T07:08:27;100155.34;;;11.14;100.00
59110;BME280;44895;47.438;18.978;2022-10-22T07:11:40;100140.59;;;11.01;100.00
59110;BME280;44895;47.438;18.978;2022-10-22T07:14:44;100142.28;;;11.30;100.00
59110;BME280;44895;47.438;18.978;2022-10-22T07:17:48;100134.56;;;10.85;100.00
59110;BME280;44895;47.438;18.978;2022-10-22T07:20:51;100141.69;;;10.81;100.00
59110;BME280;44895;47.438;18.978;2022-10-22T07:23:55;100130.91;;;10.95;100.00
59110;BME280;44895;47.438;18.978;2022-10-22T07:26:59;100131.91;;;10.99;100.00
59110;BME280;44895;47.438;18.978;2022-10-22T07:30:03;100141.09;;;11.03;100.00
59110;BME280;44895;47.438;18.978;2022-10-22T07:33:07;100136.81;;;11.16;100.00
59110;BME280;44895;47.438;18.978;2022-10-22T07:36:14;100147.50;;;11.26;100.00
59110;BME280;44895;47.438;18.978;2022-10-22T07:39:20;100139.91;;;11.75;100.00
59110;BME280;44895;47.438;18.978;2022-10-22T07:42:23;100118.47;;;12.15;100.00
59110;BME280;44895;47.438;18.978;2022-10-22T07:45:27;100117.00;;;12.60;100.00
59110;BME280;44895;47.438;18.978;2022-10-22T07:48:31;100122.25;;;12.56;100.00
59110;BME280;44895;47.438;18.978;2022-10-22T07:51:34;100131.78;;;12.81;96.02
59110;BME280;44895;47.438;18.978;2022-10-22T07:54:38;100135.34;;;13.04;93.62
59110;BME280;44895;47.438;18.978;2022-10-22T07:57:42;100137.66;;;13.11;95.74
59110;BME280;44895;47.438;18.978;2022-10-22T08:00:46;100138.75;;;13.10;92.75
59110;BME280;44895;47.438;18.978;2022-10-22T08:03:50;100131.66;;;13.46;91.29
59110;BME280;44895;47.438;18.978;2022-10-22T08:06:54;100131.59;;;14.58;81.11
59110;BME280;44895;47.438;18.978;2022-10-22T08:09:57;100139.34;;;15.17;74.26
59110;BME280;44895;47.438;18.978;2022-10-22T08:13:01;100131.09;;;16.38;66.73
59110;BME280;44895;47.438;18.978;2022-10-22T08:16:05;100131.31;;;15.94;67.75
59110;BME280;44895;47.438;18.978;2022-10-22T08:19:09;100122.00;;;15.78;67.42
59110;BME280;44895;47.438;18.978;2022-10-22T08:22:13;100129.97;;;16.60;65.04
59110;BME280;44895;47.438;18.978;2022-10-22T08:25:16;100131.69;;;17.50;60.34
59110;BME280;44895;47.438;18.978;2022-10-22T08:28:20;100127.28;;;15.36;62.50
59110;BME280;44895;47.438;18.978;2022-10-22T08:31:24;100131.94;;;16.00;65.24
59110;BME280;44895;47.438;18.978;2022-10-22T08:34:28;100130.13;;;15.57;66.04
59110;BME280;44895;47.438;18.978;2022-10-22T08:37:32;100134.22;;;14.89;70.51
59110;BME280;44895;47.438;18.978;2022-10-22T08:40:38;100130.84;;;14.75;72.45
59110;BME280;44895;47.438;18.978;2022-10-22T08:43:55;100130.59;;;14.45;79.33
59110;BME280;44895;47.438;18.978;2022-10-22T08:50:18;100147.78;;;14.37;78.05
59110;BME280;44895;47.438;18.978;2022-10-22T08:53:33;100140.81;;;14.13;77.86
59110;BME280;44895;47.438;18.978;2022-10-22T08:56:46;100149.19;;;14.16;78.86
59110;BME280;44895;47.438;18.978;2022-10-22T09:00:20;100132.69;;;13.90;78.69
59110;BME280;44895;47.438;18.978;2022-10-22T09:07:21;100144.16;;;14.10;81.20
59110;BME280;44895;47.438;18.978;2022-10-22T09:10:28;100144.00;;;14.06;79.75
59110;BME280;44895;47.438;18.978;2022-10-22T09:13:33;100141.63;;;13.82;82.26
59110;BME280;44895;47.438;18.978;2022-10-22T09:20:19;100133.19;;;13.92;80.94
59110;BME280;44895;47.438;18.978;2022-10-22T09:26:49;100129.72;;;14.18;80.02
59110;BME280;44895;47.438;18.978;2022-10-22T09:29:53;100141.59;;;14.13;80.52
59110;BME280;44895;47.438;18.978;2022-10-22T09:36:19;100156.31;;;13.95;82.35
59110;BME280;44895;47.438;18.978;2022-10-22T09:39:44;100154.88;;;13.97;84.29
59110;BME280;44895;47.438;18.978;2022-10-22T09:42:49;100152.34;;;14.01;85.16
59110;BME280;44895;47.438;18.978;2022-10-22T09:46:01;100158.22;;;13.94;88.56
59110;BME280;44895;47.438;18.978;2022-10-22T09:49:09;100150.94;;;14.21;86.18
59110;BME280;44895;47.438;18.978;2022-10-22T09:52:25;100134.84;;;14.11;85.67
59110;BME280;44895;47.438;18.978;2022-10-22T09:55:30;100139.72;;;14.23;88.33
59110;BME280;44895;47.438;18.978;2022-10-22T09:58:44;100144.16;;;14.10;86.70
59110;BME280;44895;47.438;18.978;2022-10-22T10:01:56;100128.53;;;14.42;85.05
59110;BME280;44895;47.438;18.978;2022-10-22T10:05:01;100142.47;;;14.31;87.01
59110;BME280;44895;47.438;18.978;2022-10-22T10:08:12;100142.81;;;13.98;85.72
59110;BME280;44895;47.438;18.978;2022-10-22T10:11:31;100126.91;;;14.41;85.50
59110;BME280;44895;47.438;18.978;2022-10-22T10:24:32;100131.31;;;14.68;88.81
59110;BME280;44895;47.438;18.978;2022-10-22T10:27:42;100132.22;;;14.55;89.71
59110;BME280;44895;47.438;18.978;2022-10-22T10:37:29;100117.63;;;14.77;89.34
59110;BME280;44895;47.438;18.978;2022-10-22T10:40:50;100118.94;;;14.71;89.39
59110;BME280;44895;47.438;18.978;2022-10-22T10:44:11;100122.66;;;14.83;91.59
59110;BME280;44895;47.438;18.978;2022-10-22T10:54:26;100147.88;;;14.80;89.41
59110;BME280;44895;47.438;18.978;2022-10-22T10:58:05;100142.75;;;14.79;90.54
59110;BME280;44895;47.438;18.978;2022-10-22T11:01:28;100144.81;;;14.99;91.24
59110;BME280;44895;47.438;18.978;2022-10-22T11:08:19;100142.59;;;14.84;91.48
59110;BME280;44895;47.438;18.978;2022-10-22T11:11:46;100140.00;;;14.88;90.01
59110;BME280;44895;47.438;18.978;2022-10-22T11:15:15;100130.69;;;14.80;90.78
59110;BME280;44895;47.438;18.978;2022-10-22T11:18:33;100129.38;;;14.68;93.71
59110;BME280;44895;47.438;18.978;2022-10-22T11:28:24;100115.06;;;14.89;93.66
59110;BME280;44895;47.438;18.978;2022-10-22T11:31:30;100106.41;;;14.87;95.50
59110;BME280;44895;47.438;18.978;2022-10-22T11:34:43;100107.19;;;15.14;91.30
59110;BME280;44895;47.438;18.978;2022-10-22T11:37:48;100094.00;;;15.07;91.42
59110;BME280;44895;47.438;18.978;2022-10-22T11:40:59;100095.56;;;15.26;92.88
59110;BME280;44895;47.438;18.978;2022-10-22T11:47:32;100100.09;;;15.13;93.88
59110;BME280;44895;47.438;18.978;2022-10-22T11:53:57;100091.72;;;15.36;93.14
59110;BME280;44895;47.438;18.978;2022-10-22T12:00:40;100088.47;;;15.42;93.92
59110;BME280;44895;47.438;18.978;2022-10-22T12:07:01;100082.81;;;15.47;94.74
59110;BME280;44895;47.438;18.978;2022-10-22T12:10:15;100078.91;;;15.57;97.22
59110;BME280;44895;47.438;18.978;2022-10-22T12:13:24;100075.41;;;15.57;94.51
59110;BME280;44895;47.438;18.978;2022-10-22T12:16:42;100086.34;;;15.57;94.63
59110;BME280;44895;47.438;18.978;2022-10-22T12:19:48;100081.22;;;15.38;95.31
59110;BME280;44895;47.438;18.978;2022-10-22T12:22:53;100077.88;;;15.32;97.58
59110;BME280;44895;47.438;18.978;2022-10-22T12:25:58;100071.63;;;15.14;100.00
59110;BME280;44895;47.438;18.978;2022-10-22T12:29:08;100074.38;;;15.14;100.00
59110;BME280;44895;47.438;18.978;2022-10-22T12:32:13;100069.56;;;14.93;100.00
59110;BME280;44895;47.438;18.978;2022-10-22T12:35:21;100068.44;;;14.94;98.76
59110;BME280;44895;47.438;18.978;2022-10-22T12:38:25;100064.72;;;15.08;100.00
59110;BME280;44895;47.438;18.978;2022-10-22T12:41:33;100070.38;;;15.03;100.00
59110;BME280;44895;47.438;18.978;2022-10-22T12:44:37;100066.66;;;14.98;100.00
59110;BME280;44895;47.438;18.978;2022-10-22T12:47:45;100075.19;;;14.88;100.00
59110;BME280;44895;47.438;18.978;2022-10-22T12:51:00;100082.25;;;14.89;100.00
59110;BME280;44895;47.438;18.978;2022-10-22T12:54:22;100081.81;;;14.78;100.00
59110;BME280;44895;47.438;18.978;2022-10-22T12:57:27;100074.72;;;14.86;100.00
59110;BME280;44895;47.438;18.978;2022-10-22T13:00:34;100081.16;;;14.90;100.00
59110;BME280;44895;47.438;18.978;2022-10-22T13:03:47;100079.88;;;14.88;100.00
59110;BME280;44895;47.438;18.978;2022-10-22T13:10:34;100083.56;;;14.74;100.00
59110;BME280;44895;47.438;18.978;2022-10-22T13:16:42;100077.78;;;14.76;100.00
59110;BME280;44895;47.438;18.978;2022-10-22T13:20:21;100076.97;;;14.84;100.00
59110;BME280;44895;47.438;18.978;2022-10-22T13:23:26;100081.94;;;14.91;100.00
59110;BME280;44895;47.438;18.978;2022-10-22T13:26:36;100083.53;;;15.00;100.00
59110;BME280;44895;47.438;18.978;2022-10-22T13:29:40;100068.41;;;15.03;100.00
59110;BME280;44895;47.438;18.978;2022-10-22T13:32:55;100074.72;;;15.04;100.00
59110;BME280;44895;47.438;18.978;2022-10-22T13:35:59;100068.72;;;15.19;100.00
59110;BME280;44895;47.438;18.978;2022-10-22T13:39:05;100078.41;;;15.08;100.00
59110;BME280;44895;47.438;18.978;2022-10-22T13:42:13;100079.03;;;15.05;100.00
59110;BME280;44895;47.438;18.978;2022-10-22T13:45:17;100078.25;;;15.04;100.00
59110;BME280;44895;47.438;18.978;2022-10-22T13:48:23;100076.16;;;14.92;100.00
59110;BME280;44895;47.438;18.978;2022-10-22T13:51:32;100090.63;;;14.93;100.00
59110;BME280;44895;47.438;18.978;2022-10-22T13:54:37;100088.06;;;14.88;100.00
59110;BME280;44895;47.438;18.978;2022-10-22T13:57:41;100077.75;;;14.84;100.00
59110;BME280;44895;47.438;18.978;2022-10-22T14:00:47;100092.25;;;14.94;100.00
59110;BME280;44895;47.438;18.978;2022-10-22T14:03:54;100097.38;;;14.95;100.00
59110;BME280;44895;47.438;18.978;2022-10-22T14:07:00;100095.78;;;14.86;100.00
59110;BME280;44895;47.438;18.978;2022-10-22T14:10:33;100100.78;;;14.92;100.00
59110;BME280;44895;47.438;18.978;2022-10-22T14:13:37;100099.00;;;14.88;100.00
59110;BME280;44895;47.438;18.978;2022-10-22T14:16:40;100107.19;;;14.96;100.00
59110;BME280;44895;47.438;18.978;2022-10-22T14:19:46;100090.00;;;14.87;100.00
59110;BME280;44895;47.438;18.978;2022-10-22T14:22:52;100091.13;;;14.77;100.00
59110;BME280;44895;47.438;18.978;2022-10-22T14:25:57;100093.03;;;14.68;100.00
59110;BME280;44895;47.438;18.978;2022-10-22T14:29:02;100080.31;;;14.63;100.00
59110;BME280;44895;47.438;18.978;2022-10-22T14:32:14;100081.47;;;14.71;100.00
59110;BME280;44895;47.438;18.978;2022-10-22T14:35:21;100087.69;;;14.63;100.00
59110;BME280;44895;47.438;18.978;2022-10-22T14:38:24;100099.44;;;14.55;100.00
59110;BME280;44895;47.438;18.978;2022-10-22T14:41:29;100095.25;;;14.57;100.00
59110;BME280;44895;47.438;18.978;2022-10-22T14:44:32;100095.09;;;14.54;100.00
59110;BME280;44895;47.438;18.978;2022-10-22T14:47:36;100095.41;;;14.43;100.00
59110;BME280;44895;47.438;18.978;2022-10-22T14:50:41;100097.63;;;14.32;100.00
59110;BME280;44895;47.438;18.978;2022-10-22T14:53:45;100095.38;;;14.34;100.00
59110;BME280;44895;47.438;18.978;2022-10-22T14:56:49;100103.75;;;14.29;100.00
59110;BME280;44895;47.438;18.978;2022-10-22T14:59:53;100101.34;;;14.28;100.00
59110;BME280;44895;47.438;18.978;2022-10-22T15:02:57;100111.25;;;14.24;100.00
59110;BME280;44895;47.438;18.978;2022-10-22T15:06:02;100107.91;;;14.27;100.00
59110;BME280;44895;47.438;18.978;2022-10-22T15:09:06;100112.81;;;14.07;100.00
59110;BME280;44895;47.438;18.978;2022-10-22T15:12:10;100116.38;;;14.08;100.00
59110;BME280;44895;47.438;18.978;2022-10-22T15:15:14;100113.44;;;13.95;100.00
59110;BME280;44895;47.438;18.978;2022-10-22T15:18:17;100109.38;;;13.84;100.00
59110;BME280;44895;47.438;18.978;2022-10-22T15:21:21;100103.91;;;13.84;100.00
59110;BME280;44895;47.438;18.978;2022-10-22T15:24:25;100104.28;;;13.91;100.00
59110;BME280;44895;47.438;18.978;2022-10-22T15:27:29;100108.41;;;13.80;100.00
59110;BME280;44895;47.438;18.978;2022-10-22T15:30:33;100109.28;;;13.66;100.00
59110;BME280;44895;47.438;18.978;2022-10-22T15:33:36;100113.53;;;13.81;100.00
59110;BME280;44895;47.438;18.978;2022-10-22T15:36:40;100111.28;;;13.75;100.00
59110;BME280;44895;47.438;18.978;2022-10-22T15:39:43;100101.69;;;13.54;100.00
59110;BME280;44895;47.438;18.978;2022-10-22T15:42:47;100118.94;;;13.73;100.00
59110;BME280;44895;47.438;18.978;2022-10-22T15:46:14;100128.53;;;13.61;100.00
59110;BME280;44895;47.438;18.978;2022-10-22T15:49:18;100139.75;;;13.60;100.00
59110;BME280;44895;47.438;18.978;2022-10-22T15:52:22;100146.25;;;13.27;100.00
59110;BME280;44895;47.438;18.978;2022-10-22T15:55:26;100147.56;;;13.30;100.00
59110;BME280;44895;47.438;18.978;2022-10-22T15:58:30;100153.50;;;13.32;100.00
59110;BME280;44895;47.438;18.978;2022-10-22T16:01:34;100154.00;;;13.11;100.00
59110;BME280;44895;47.438;18.978;2022-10-22T16:04:38;100159.41;;;13.02;100.00
59110;BME280;44895;47.438;18.978;2022-10-22T16:07:41;100168.47;;;12.98;100.00
59110;BME280;44895;47.438;18.978;2022-10-22T16:10:46;100185.22;;;12.68;100.00
59110;BME280;44895;47.438;18.978;2022-10-22T16:13:54;100194.41;;;12.59;100.00
59110;BME280;44895;47.438;18.978;2022-10-22T16:16:59;100203.41;;;12.59;100.00
59110;BME280;44895;47.438;18.978;2022-10-22T16:20:04;100212.16;;;12.42;100.00
59110;BME280;44895;47.438;18.978;2022-10-22T16:23:08;100221.97;;;12.43;100.00
59110;BME280;44895;47.438;18.978;2022-10-22T16:26:12;100232.66;;;12.39;100.00
59110;BME280;44895;47.438;18.978;2022-10-22T16:29:17;100245.34;;;12.30;100.00
59110;BME280;44895;47.438;18.978;2022-10-22T16:32:21;100241.22;;;12.47;100.00
59110;BME280;44895;47.438;18.978;2022-10-22T16:35:25;100251.41;;;12.41;100.00
59110;BME280;44895;47.438;18.978;2022-10-22T16:38:29;100258.25;;;12.24;100.00
59110;BME280;44895;47.438;18.978;2022-10-22T16:41:33;100268.53;;;12.14;100.00
59110;BME280;44895;47.438;18.978;2022-10-22T16:44:39;100274.66;;;12.05;100.00
59110;BME280;44895;47.438;18.978;2022-10-22T16:47:43;100274.34;;;12.07;100.00
59110;BME280;44895;47.438;18.978;2022-10-22T16:50:49;100285.16;;;11.93;100.00
59110;BME280;44895;47.438;18.978;2022-10-22T16:53:54;100288.25;;;12.05;100.00
59110;BME280;44895;47.438;18.978;2022-10-22T16:56:58;100283.78;;;11.96;100.00
59110;BME280;44895;47.438;18.978;2022-10-22T17:00:03;100289.19;;;12.01;100.00
59110;BME280;44895;47.438;18.978;2022-10-22T17:03:10;100288.81;;;11.69;100.00
59110;BME280;44895;47.438;18.978;2022-10-22T17:06:14;100286.78;;;11.94;100.00
59110;BME280;44895;47.438;18.978;2022-10-22T17:09:17;100288.66;;;11.99;100.00
59110;BME280;44895;47.438;18.978;2022-10-22T17:12:22;100285.25;;;11.88;100.00
59110;BME280;44895;47.438;18.978;2022-10-22T17:15:26;100274.53;;;11.97;100.00
59110;BME280;44895;47.438;18.978;2022-10-22T17:18:30;100273.78;;;11.91;100.00
59110;BME280;44895;47.438;18.978;2022-10-22T17:21:34;100278.69;;;11.89;100.00
59110;BME280;44895;47.438;18.978;2022-10-22T17:24:38;100274.16;;;11.84;100.00
59110;BME280;44895;47.438;18.978;2022-10-22T17:27:45;100285.72;;;11.76;100.00